Grover, Illinois
Current Conditions -  °F | °C
As of 2:15 PM on Thursday 23 Oct 2014 (Local Time) from KFWC Reporting Station
Clear Clear  
Wind Chill: 61°   Ceiling: Unl
Heat Index: 61°   Visibility: 10mi
Dew Point: 42°   Wind: 5mph
Humidity: 50%   Direction: 240°WSW
Pressure: 30.16"   Gusts: NA
Location:  38.3669°N, 88.3516°W
Report Text: KFWC 231915Z AUTO 24004KT 10SM CLR 16/06 A3016 RMK AO1 T01600057
Loading
Personal Weather Stations






























Interactive Weather Map
Tropical Storm Tracking
New forecast layout! Learn more

10-Day Weather Forecast

Advertisements
Track Severe Weather on mobile